createdAt,value
2023-04-10T00:00:56.873Z,4.47
2023-04-10T00:03:25.057Z,4.43
2023-04-10T00:05:54.701Z,4.60
2023-04-10T00:08:22.821Z,4.80
2023-04-10T00:10:50.517Z,4.50
2023-04-10T00:13:18.334Z,4.85
2023-04-10T00:15:46.167Z,4.80
2023-04-10T00:18:15.475Z,4.43
2023-04-10T00:20:43.724Z,4.95
2023-04-10T00:23:11.495Z,4.80
2023-04-10T00:25:39.259Z,5.10
2023-04-10T00:28:06.931Z,4.10
2023-04-10T00:30:34.620Z,4.60
2023-04-10T00:33:02.436Z,4.60
2023-04-10T00:35:31.679Z,4.20
2023-04-10T00:37:59.477Z,4.85
2023-04-10T00:40:27.430Z,4.65
2023-04-10T00:42:55.299Z,4.70
2023-04-10T00:45:23.031Z,4.72
2023-04-10T00:47:50.904Z,4.60
2023-04-10T00:50:18.871Z,4.03
2023-04-10T00:52:48.973Z,4.88
2023-04-10T00:55:16.952Z,4.68
2023-04-10T00:57:46.936Z,4.68
2023-04-10T01:00:15.664Z,4.25
2023-04-10T01:02:43.679Z,4.28
2023-04-10T01:05:13.492Z,4.70
2023-04-10T01:07:55.533Z,4.22
2023-04-10T01:10:30.657Z,4.70
2023-04-10T01:13:07.763Z,4.40
2023-04-10T01:15:45.155Z,4.13
2023-04-10T01:18:20.943Z,4.10
2023-04-10T01:20:48.754Z,4.27
2023-04-10T01:23:51.092Z,4.65
2023-04-10T01:26:33.899Z,4.30
2023-04-10T01:29:08.092Z,4.45
2023-04-10T01:31:40.345Z,4.13
2023-04-10T01:34:10.733Z,4.55
2023-04-10T01:36:44.794Z,4.85
2023-04-10T01:39:13.592Z,3.95
2023-04-10T01:41:45.111Z,4.20
2023-04-10T01:44:16.904Z,3.95
2023-04-10T01:46:45.805Z,4.30
2023-04-10T01:49:15.320Z,4.10
2023-04-10T01:51:43.671Z,4.03
2023-04-10T01:54:11.838Z,4.40
2023-04-10T01:56:39.830Z,4.57
2023-04-10T01:59:07.718Z,4.20
2023-04-10T02:01:37.034Z,3.72
2023-04-10T02:04:04.935Z,4.30
2023-04-10T02:06:42.678Z,4.70
2023-04-10T02:09:22.979Z,4.50
2023-04-10T02:11:56.806Z,4.40
2023-04-10T02:14:28.524Z,4.38
2023-04-10T02:16:58.611Z,4.25
2023-04-10T02:19:28.011Z,4.22
2023-04-10T02:21:56.946Z,4.70
2023-04-10T02:24:24.839Z,4.70
2023-04-10T02:26:54.163Z,4.57
2023-04-10T02:29:21.873Z,4.60
2023-04-10T02:31:51.597Z,4.63
2023-04-10T02:34:20.758Z,4.45
2023-04-10T02:36:48.497Z,4.75
2023-04-10T02:39:16.195Z,4.35
2023-04-10T02:41:43.965Z,4.80
2023-04-10T02:44:11.665Z,5.03
2023-04-10T02:46:39.355Z,4.57
2023-04-10T02:49:07.587Z,4.28
2023-04-10T02:51:37.195Z,4.18
2023-04-10T02:54:05.320Z,4.25
2023-04-10T02:56:35.657Z,4.00
2023-04-10T02:59:03.768Z,4.65
2023-04-10T03:01:32.051Z,4.65
2023-04-10T03:04:00.000Z,4.80
2023-04-10T03:06:28.178Z,4.32
2023-04-10T03:08:57.342Z,4.05
2023-04-10T03:11:25.106Z,4.38
2023-04-10T03:13:52.942Z,4.20
2023-04-10T03:16:20.939Z,4.93
2023-04-10T03:18:48.685Z,4.25
2023-04-10T03:21:16.489Z,4.50
2023-04-10T03:23:44.184Z,4.55
2023-04-10T03:26:13.299Z,4.38
2023-04-10T03:28:41.407Z,4.30
2023-04-10T03:31:09.720Z,4.35
2023-04-10T03:33:37.599Z,4.53
2023-04-10T03:36:05.984Z,4.35
2023-04-10T03:38:33.699Z,5.00
2023-04-10T03:41:01.397Z,4.97
2023-04-10T03:43:30.647Z,4.38
2023-04-10T03:45:58.329Z,5.18
2023-04-10T03:48:28.135Z,4.72
2023-04-10T03:50:56.067Z,4.75
2023-04-10T03:53:23.868Z,4.47
2023-04-10T03:55:52.405Z,4.72
2023-04-10T03:58:20.421Z,4.47
2023-04-10T04:00:49.495Z,4.82
2023-04-10T04:03:17.419Z,4.60
2023-04-10T04:05:45.268Z,4.68
2023-04-10T04:08:14.032Z,4.85
2023-04-10T04:10:41.756Z,4.85
2023-04-10T04:13:09.443Z,4.35
2023-04-10T04:15:37.161Z,4.70
2023-04-10T04:18:06.321Z,5.00
2023-04-10T04:20:34.146Z,5.25
2023-04-10T04:23:01.882Z,4.68
2023-04-10T04:25:29.596Z,4.85
2023-04-10T04:27:57.603Z,4.82
2023-04-10T04:30:25.290Z,4.88
2023-04-10T04:32:52.995Z,5.32
2023-04-10T04:35:22.652Z,4.85
2023-04-10T04:37:50.376Z,4.97
2023-04-10T04:40:18.235Z,4.93
2023-04-10T04:42:45.991Z,5.22
2023-04-10T04:45:14.219Z,4.95
2023-04-10T04:47:41.922Z,4.82
2023-04-10T04:50:10.905Z,4.90
2023-04-10T04:52:39.998Z,4.95
2023-04-10T04:55:08.669Z,4.57
2023-04-10T04:57:36.496Z,5.25
2023-04-10T05:00:04.550Z,4.72
2023-04-10T05:02:32.318Z,4.85
2023-04-10T05:05:00.520Z,5.30
2023-04-10T05:07:28.268Z,4.88
2023-04-10T05:09:57.335Z,4.40
2023-04-10T05:12:25.044Z,4.97
2023-04-10T05:14:52.790Z,4.90
2023-04-10T05:17:20.476Z,4.68
2023-04-10T05:19:48.276Z,4.57
2023-04-10T05:22:18.027Z,4.90
2023-04-10T05:24:46.645Z,5.10
2023-04-10T05:27:15.789Z,5.05
2023-04-10T05:29:43.507Z,4.80
2023-04-10T05:32:11.389Z,5.20
2023-04-10T05:34:39.060Z,4.95
2023-04-10T05:37:06.818Z,4.93
2023-04-10T05:39:34.467Z,4.75
2023-04-10T05:42:02.916Z,4.15
2023-04-10T05:44:32.196Z,4.38
2023-04-10T05:46:59.894Z,4.47
2023-04-10T05:49:27.620Z,5.07
2023-04-10T05:51:55.377Z,4.90
2023-04-10T05:54:23.163Z,5.43
2023-04-10T05:56:50.896Z,4.43
2023-04-10T05:59:18.696Z,4.93
2023-04-10T06:01:47.978Z,4.85
2023-04-10T06:04:15.846Z,4.97
2023-04-10T06:06:43.731Z,4.32
2023-04-10T06:09:11.496Z,4.25
2023-04-10T06:11:41.422Z,4.50
2023-04-10T06:14:09.177Z,4.97
2023-04-10T06:16:37.088Z,4.88
2023-04-10T06:19:07.606Z,4.32
2023-04-10T06:21:35.621Z,4.38
2023-04-10T06:24:03.370Z,4.40
2023-04-10T06:26:31.201Z,4.72
2023-04-10T06:28:58.944Z,4.43
2023-04-10T06:31:27.197Z,4.93
2023-04-10T06:33:55.681Z,4.43
2023-04-10T06:36:24.753Z,4.40
2023-04-10T06:38:52.677Z,4.88
2023-04-10T06:41:20.818Z,4.30
2023-04-10T06:43:49.034Z,3.72
2023-04-10T06:46:17.236Z,4.45
2023-04-10T06:48:44.935Z,4.35
2023-04-10T06:51:12.683Z,4.38
2023-04-10T06:53:41.727Z,4.38
2023-04-10T06:56:10.679Z,4.47
2023-04-10T06:58:38.335Z,4.10
2023-04-10T07:01:06.511Z,4.47
2023-04-10T07:03:34.320Z,4.97
2023-04-10T07:06:03.335Z,3.72
2023-04-10T07:08:31.261Z,3.85
2023-04-10T07:11:00.372Z,4.30
2023-04-10T07:13:28.178Z,4.20
2023-04-10T07:15:56.121Z,4.57
2023-04-10T07:18:24.003Z,4.72
2023-04-10T07:20:52.359Z,4.07
2023-04-10T07:23:20.486Z,4.28
2023-04-10T07:25:48.238Z,4.38
2023-04-10T07:28:17.383Z,3.65
2023-04-10T07:30:45.164Z,4.57
2023-04-10T07:33:13.041Z,4.72
2023-04-10T07:35:41.015Z,4.00
2023-04-10T07:38:08.790Z,4.93
2023-04-10T07:40:36.522Z,4.05
2023-04-10T07:43:04.366Z,4.45
2023-04-10T07:45:33.877Z,4.43
2023-04-10T07:48:02.666Z,3.83
2023-04-10T07:50:31.482Z,4.20
2023-04-10T07:53:03.448Z,4.47
2023-04-10T07:55:31.443Z,3.92
2023-04-10T07:57:59.232Z,3.70
2023-04-10T08:00:26.973Z,4.68
2023-04-10T08:02:56.217Z,4.45
2023-04-10T08:05:24.212Z,3.97
2023-04-10T08:07:52.129Z,4.45
2023-04-10T08:10:20.226Z,4.28
2023-04-10T08:12:48.078Z,4.28
2023-04-10T08:15:16.256Z,4.90
2023-04-10T08:17:44.004Z,4.25
2023-04-10T08:20:14.192Z,4.15
2023-04-10T08:22:41.999Z,4.35
2023-04-10T08:25:10.491Z,3.95
2023-04-10T08:27:41.471Z,4.32
2023-04-10T08:30:10.173Z,3.92
2023-04-10T08:32:39.363Z,4.25
2023-04-10T08:35:07.974Z,3.85
2023-04-10T08:37:37.174Z,4.22
2023-04-10T08:40:05.331Z,3.72
2023-04-10T08:42:34.554Z,3.63
2023-04-10T08:45:02.995Z,3.70
2023-04-10T08:47:34.333Z,3.97
2023-04-10T08:50:07.082Z,3.67
2023-04-10T08:52:39.136Z,3.78
2023-04-10T08:55:09.644Z,4.22
2023-04-10T08:57:40.638Z,3.78
2023-04-10T09:02:44.187Z,4.18
2023-04-10T09:05:13.963Z,3.72
2023-04-10T09:07:43.051Z,3.45
2023-04-10T09:10:11.301Z,3.67
2023-04-10T09:12:47.106Z,3.72
2023-04-10T09:15:15.185Z,3.40
2023-04-10T09:17:57.091Z,3.08
2023-04-10T09:20:26.779Z,3.97
2023-04-10T09:22:56.155Z,3.72
2023-04-10T09:25:32.495Z,3.60
2023-04-10T09:28:05.007Z,4.30
2023-04-10T09:30:37.441Z,3.05
2023-04-10T09:33:21.744Z,4.13
2023-04-10T09:35:49.553Z,3.63
2023-04-10T09:38:20.048Z,2.85
2023-04-10T09:40:48.867Z,3.63
2023-04-10T09:43:20.747Z,3.75
2023-04-10T09:45:50.223Z,3.38
2023-04-10T09:48:18.276Z,3.40
2023-04-10T09:50:46.027Z,3.72
2023-04-10T09:53:15.764Z,3.85
2023-04-10T09:55:45.229Z,3.90
2023-04-10T09:58:13.682Z,3.50
2023-04-10T10:00:43.359Z,3.65
2023-04-10T10:03:12.863Z,3.95
2023-04-10T10:05:42.532Z,3.60
2023-04-10T10:08:12.324Z,4.00
2023-04-10T10:10:46.868Z,3.58
2023-04-10T10:13:20.917Z,3.92
2023-04-10T10:15:56.058Z,3.30
2023-04-10T10:18:31.620Z,3.40
2023-04-10T10:21:00.362Z,3.53
2023-04-10T10:23:28.895Z,2.97
2023-04-10T10:26:00.614Z,3.50
2023-04-10T10:28:34.055Z,3.63
2023-04-10T10:31:02.410Z,3.45
2023-04-10T10:33:31.829Z,3.90
2023-04-10T10:36:01.685Z,4.28
2023-04-10T10:38:29.651Z,3.60
2023-04-10T10:41:07.794Z,3.63
2023-04-10T10:43:51.782Z,3.30
2023-04-10T10:46:26.756Z,4.43
2023-04-10T10:48:57.621Z,3.13
2023-04-10T10:51:25.448Z,3.20
2023-04-10T10:53:53.232Z,2.83
2023-04-10T10:56:37.367Z,3.05
2023-04-10T10:59:06.432Z,2.92
2023-04-10T11:01:34.251Z,2.88
2023-04-10T11:04:02.296Z,2.78
2023-04-10T11:06:53.173Z,2.95
2023-04-10T11:09:49.444Z,3.10
2023-04-10T11:12:17.588Z,2.65
2023-04-10T11:14:58.457Z,3.15
2023-04-10T11:17:48.832Z,3.00
2023-04-10T11:20:17.345Z,3.60
2023-04-10T11:23:10.561Z,3.15
2023-04-10T11:25:49.380Z,2.83
2023-04-10T11:28:39.513Z,3.15
2023-04-10T11:31:20.895Z,3.17
2023-04-10T11:33:49.802Z,3.00
2023-04-10T11:36:18.568Z,3.15
2023-04-10T11:38:57.541Z,2.92
2023-04-10T11:41:30.674Z,2.65
2023-04-10T11:43:58.988Z,2.80
2023-04-10T11:46:28.180Z,2.67
2023-04-10T11:48:58.359Z,2.58
2023-04-10T11:51:27.254Z,2.63
2023-04-10T11:54:06.292Z,2.00
2023-04-10T11:56:34.034Z,2.40
2023-04-10T11:59:02.645Z,2.40
2023-04-10T12:01:31.747Z,2.20
2023-04-10T12:03:59.755Z,2.30
2023-04-10T12:06:28.625Z,2.25
2023-04-10T12:08:56.808Z,2.28
2023-04-10T12:11:26.634Z,2.30
2023-04-10T12:13:55.445Z,2.50
2023-04-10T12:16:23.710Z,1.95
2023-04-10T12:18:53.924Z,2.40
2023-04-10T12:21:21.893Z,2.35
2023-04-10T12:23:49.641Z,2.00
2023-04-10T12:26:19.472Z,2.35
2023-04-10T12:28:53.670Z,2.75
2023-04-10T12:31:28.439Z,2.40
2023-04-10T12:33:58.508Z,2.03
2023-04-10T12:36:29.310Z,2.10
2023-04-10T12:38:57.628Z,2.30
2023-04-10T12:41:28.230Z,1.85
2023-04-10T12:44:08.277Z,2.42
2023-04-10T12:46:36.808Z,2.17
2023-04-10T12:49:14.380Z,2.00
2023-04-10T12:51:46.649Z,2.10
2023-04-10T12:54:29.168Z,2.08
2023-04-10T12:56:57.704Z,2.10
2023-04-10T12:59:26.454Z,2.13
2023-04-10T13:01:54.398Z,2.10
2023-04-10T13:04:24.519Z,2.13
2023-04-10T13:06:53.272Z,1.85
2023-04-10T13:09:21.038Z,1.90
2023-04-10T13:11:51.024Z,2.13
2023-04-10T13:14:19.729Z,2.17
2023-04-10T13:16:47.529Z,1.98
2023-04-10T13:19:15.423Z,1.70
2023-04-10T13:21:44.549Z,2.25
2023-04-10T13:24:13.189Z,2.42
2023-04-10T13:26:41.860Z,2.25
2023-04-10T13:29:09.582Z,2.42
2023-04-10T13:31:37.318Z,1.95
2023-04-10T13:34:05.055Z,1.98
2023-04-10T13:36:32.898Z,1.98
2023-04-10T13:39:02.009Z,2.17
2023-04-10T13:41:29.740Z,2.40
2023-04-10T13:43:57.398Z,1.90
2023-04-10T13:46:25.553Z,1.77
2023-04-10T13:48:53.403Z,1.80
2023-04-10T13:51:21.149Z,2.17
2023-04-10T13:53:48.882Z,1.60
2023-04-10T13:56:18.050Z,1.70
2023-04-10T13:58:47.069Z,2.47
2023-04-10T14:01:14.906Z,2.00
2023-04-10T14:03:42.923Z,2.20
2023-04-10T14:06:10.742Z,1.88
2023-04-10T14:08:38.462Z,2.33
2023-04-10T14:11:06.605Z,2.45
2023-04-10T14:13:35.696Z,1.75
2023-04-10T14:16:04.072Z,1.85
2023-04-10T14:18:31.938Z,2.10
2023-04-10T14:20:59.634Z,2.30
2023-04-10T14:23:27.463Z,2.40
2023-04-10T14:25:55.272Z,2.45
2023-04-10T14:28:23.076Z,1.88
2023-04-10T14:30:53.127Z,1.85
2023-04-10T14:33:21.394Z,2.42
2023-04-10T14:35:49.237Z,2.33
2023-04-10T14:38:17.029Z,2.00
2023-04-10T14:40:46.630Z,2.42
2023-04-10T14:43:14.334Z,2.40
2023-04-10T14:45:42.032Z,2.50
2023-04-10T14:48:12.885Z,2.28
2023-04-10T14:50:40.986Z,2.33
2023-04-10T14:53:10.010Z,2.00
2023-04-10T14:55:38.107Z,2.90
2023-04-10T14:58:06.717Z,2.25
2023-04-10T15:00:34.519Z,2.13
2023-04-10T15:03:02.580Z,1.80
2023-04-10T15:05:31.672Z,1.65
2023-04-10T15:07:59.356Z,1.88
2023-04-10T15:10:27.072Z,2.20
2023-04-10T15:12:54.794Z,2.30
2023-04-10T15:15:22.524Z,2.00
2023-04-10T15:17:50.274Z,1.90
2023-04-10T15:20:18.125Z,1.95
2023-04-10T15:22:48.293Z,1.98
2023-04-10T15:25:16.207Z,1.50
2023-04-10T15:27:43.915Z,1.80
2023-04-10T15:30:13.004Z,1.60
2023-04-10T15:32:40.782Z,1.67
2023-04-10T15:35:09.564Z,1.55
2023-04-10T15:37:37.573Z,1.65
2023-04-10T15:40:07.854Z,1.60
2023-04-10T15:42:36.153Z,1.80
2023-04-10T15:45:04.120Z,1.95
2023-04-10T15:47:31.875Z,1.70
2023-04-10T15:49:59.928Z,1.70
2023-04-10T15:52:29.353Z,1.85
2023-04-10T15:54:58.244Z,2.03
2023-04-10T15:57:27.309Z,1.90
2023-04-10T15:59:56.629Z,1.77
2023-04-10T16:02:24.629Z,1.95
2023-04-10T16:04:52.640Z,1.88
2023-04-10T16:07:21.006Z,2.10
2023-04-10T16:09:48.692Z,1.50
2023-04-10T16:12:16.799Z,2.00
2023-04-10T16:14:45.853Z,1.65
2023-04-10T16:17:13.569Z,1.77
2023-04-10T16:19:41.302Z,2.10
2023-04-10T16:22:08.978Z,1.70
2023-04-10T16:24:36.696Z,1.88
2023-04-10T16:27:05.055Z,2.03
2023-04-10T16:29:32.773Z,1.77
2023-04-10T16:32:01.924Z,1.90
2023-04-10T16:34:29.666Z,2.03
2023-04-10T16:36:57.414Z,2.00
2023-04-10T16:39:25.238Z,1.83
2023-04-10T16:41:53.138Z,2.10
2023-04-10T16:44:20.877Z,2.10
2023-04-10T16:46:48.580Z,2.38
2023-04-10T16:49:17.893Z,1.98
2023-04-10T16:51:45.667Z,2.38
2023-04-10T16:54:14.115Z,2.00
2023-04-10T16:56:41.822Z,2.20
2023-04-10T16:59:09.629Z,2.30
2023-04-10T17:01:39.703Z,2.53
2023-04-10T17:04:08.058Z,2.65
2023-04-10T17:06:37.329Z,2.40
2023-04-10T17:09:05.549Z,2.85
2023-04-10T17:11:33.254Z,2.65
2023-04-10T17:14:01.094Z,2.80
2023-04-10T17:16:28.906Z,2.85
2023-04-10T17:18:57.088Z,2.80
2023-04-10T17:21:24.915Z,2.60
2023-04-10T17:23:54.126Z,2.90
2023-04-10T17:26:23.372Z,3.08
2023-04-10T17:28:51.529Z,2.17
2023-04-10T17:31:19.450Z,2.90
2023-04-10T17:33:47.150Z,2.80
2023-04-10T17:36:15.337Z,2.60
2023-04-10T17:38:43.419Z,2.63
2023-04-10T17:41:15.450Z,2.92
2023-04-10T17:43:43.192Z,2.67
2023-04-10T17:46:14.328Z,2.88
2023-04-10T17:48:42.148Z,2.67
2023-04-10T17:51:10.411Z,2.30
2023-04-10T17:53:38.564Z,3.03
2023-04-10T17:56:06.996Z,2.50
2023-04-10T17:58:36.075Z,2.25
2023-04-10T18:01:03.929Z,2.25
2023-04-10T18:03:31.750Z,2.83
2023-04-10T18:05:59.782Z,2.10
2023-04-10T18:08:27.493Z,2.03
2023-04-10T18:10:55.300Z,2.22
2023-04-10T18:13:23.062Z,1.88
2023-04-10T18:15:52.182Z,2.13
2023-04-10T18:18:19.936Z,2.10
2023-04-10T18:20:47.665Z,2.75
2023-04-10T18:23:15.523Z,1.83
2023-04-10T18:25:43.290Z,1.92
2023-04-10T18:28:15.375Z,2.03
2023-04-10T18:30:44.231Z,1.58
2023-04-10T18:33:14.110Z,1.65
2023-04-10T18:35:42.169Z,1.92
2023-04-10T18:38:10.038Z,1.52
2023-04-10T18:40:37.807Z,2.28
2023-04-10T18:43:05.560Z,1.70
2023-04-10T18:45:34.389Z,1.60
2023-04-10T18:48:02.341Z,1.60
2023-04-10T18:50:34.818Z,1.38
2023-04-10T18:53:02.605Z,1.80
2023-04-10T18:55:30.360Z,1.55
2023-04-10T18:57:58.046Z,1.60
2023-04-10T19:00:25.872Z,1.42
2023-04-10T19:02:54.312Z,1.60
2023-04-10T19:05:22.080Z,1.80
2023-04-10T19:08:03.124Z,1.50
2023-04-10T19:10:31.771Z,1.33
2023-04-10T19:12:59.630Z,2.08
2023-04-10T19:15:27.406Z,1.42
2023-04-10T19:17:55.689Z,1.20
2023-04-10T19:20:49.373Z,1.48
2023-04-10T19:23:12.947Z,1.67
2023-04-10T19:25:40.930Z,1.70
2023-04-10T19:28:08.720Z,1.63
2023-04-10T19:30:36.434Z,1.20
2023-04-10T19:33:04.424Z,1.40
2023-04-10T19:35:32.285Z,1.17
2023-04-10T19:38:00.148Z,1.33
2023-04-10T19:40:29.265Z,1.75
2023-04-10T19:42:59.367Z,1.50
2023-04-10T19:45:29.156Z,1.80
2023-04-10T19:47:57.743Z,1.40
2023-04-10T19:50:25.678Z,1.20
2023-04-10T19:52:53.479Z,1.30
2023-04-10T19:55:21.505Z,1.52
2023-04-10T19:57:50.917Z,2.17
2023-04-10T20:00:19.009Z,1.60
2023-04-10T20:02:46.954Z,1.20
2023-04-10T20:05:14.944Z,1.88
2023-04-10T20:07:42.779Z,2.30
2023-04-10T20:10:10.930Z,1.25
2023-04-10T20:12:38.703Z,1.50
2023-04-10T20:15:09.530Z,1.40
2023-04-10T20:17:38.516Z,1.35
2023-04-10T20:20:07.380Z,1.50
2023-04-10T20:22:35.134Z,1.20
2023-04-10T20:25:03.067Z,1.48
2023-04-10T20:27:30.750Z,1.50
2023-04-10T20:29:58.518Z,1.70
2023-04-10T20:32:27.687Z,1.60
2023-04-10T20:34:55.432Z,1.83
2023-04-10T20:37:23.159Z,1.58
2023-04-10T20:39:51.552Z,1.48
2023-04-10T20:42:19.262Z,1.30
2023-04-10T20:44:47.014Z,1.92
2023-04-10T20:47:14.864Z,1.38
2023-04-10T20:49:43.975Z,1.70
2023-04-10T20:52:11.739Z,1.92
2023-04-10T20:54:39.424Z,2.15
2023-04-10T20:57:07.264Z,1.75
2023-04-10T20:59:36.016Z,1.98
2023-04-10T21:02:03.893Z,1.90
2023-04-10T21:04:32.705Z,1.83
2023-04-10T21:07:01.874Z,1.83
2023-04-10T21:09:29.747Z,2.60
2023-04-10T21:11:58.162Z,1.58
2023-04-10T21:14:25.893Z,2.00
2023-04-10T21:16:53.789Z,1.90
2023-04-10T21:19:21.666Z,2.10
2023-04-10T21:21:49.417Z,1.80
2023-04-10T21:24:18.610Z,1.67
2023-04-10T21:26:46.374Z,2.30
2023-04-10T21:29:14.105Z,1.60
2023-04-10T21:31:41.927Z,2.05
2023-04-10T21:34:09.671Z,1.88
2023-04-10T21:36:37.382Z,2.03
2023-04-10T21:39:08.980Z,2.28
2023-04-10T21:41:38.253Z,2.33
2023-04-10T21:44:06.345Z,1.88
2023-04-10T21:46:34.540Z,2.05
2023-04-10T21:49:02.980Z,2.50
2023-04-10T21:51:31.062Z,2.17
2023-04-10T21:53:58.799Z,2.28
2023-04-10T21:56:26.515Z,2.15
2023-04-10T21:58:55.832Z,1.83
2023-04-10T22:01:24.002Z,2.22
2023-04-10T22:03:51.905Z,1.90
2023-04-10T22:06:19.729Z,1.90
2023-04-10T22:08:47.461Z,2.25
2023-04-10T22:11:15.268Z,2.30
2023-04-10T22:13:42.988Z,3.05
2023-04-10T22:16:12.032Z,2.47
2023-04-10T22:18:39.787Z,2.15
2023-04-10T22:21:08.033Z,2.75
2023-04-10T22:23:35.762Z,2.03
2023-04-10T22:26:03.538Z,2.33
2023-04-10T22:28:31.283Z,1.73
2023-04-10T22:30:59.061Z,2.10
2023-04-10T22:33:28.178Z,2.00
2023-04-10T22:35:55.898Z,1.95
2023-04-10T22:38:23.626Z,2.33
2023-04-10T22:40:51.397Z,3.08
2023-04-10T22:43:19.157Z,2.90
2023-04-10T22:45:46.875Z,2.53
2023-04-10T22:48:14.614Z,2.50
2023-04-10T22:50:43.763Z,2.97
2023-04-10T22:53:12.196Z,2.53
2023-04-10T22:55:40.135Z,3.90
2023-04-10T22:58:08.554Z,3.00
2023-04-10T23:00:36.317Z,2.75
2023-04-10T23:03:04.301Z,2.53
2023-04-10T23:05:33.021Z,3.45
2023-04-10T23:08:02.184Z,2.92
2023-04-10T23:10:29.936Z,3.70
2023-04-10T23:12:57.714Z,3.67
2023-04-10T23:15:25.415Z,3.03
2023-04-10T23:17:53.150Z,2.88
2023-04-10T23:20:20.986Z,3.25
2023-04-10T23:22:48.732Z,3.58
2023-04-10T23:25:17.927Z,3.20
2023-04-10T23:27:45.686Z,3.53
2023-04-10T23:30:13.670Z,3.83
2023-04-10T23:32:41.487Z,2.35
2023-04-10T23:35:10.009Z,3.33
2023-04-10T23:37:37.767Z,4.35
2023-04-10T23:40:06.459Z,4.35
2023-04-10T23:42:35.565Z,3.42
2023-04-10T23:45:03.321Z,4.18
2023-04-10T23:47:31.043Z,3.95
2023-04-10T23:49:58.906Z,3.00
2023-04-10T23:52:26.657Z,3.38
2023-04-10T23:54:56.475Z,3.40
2023-04-10T23:57:24.481Z,4.15
2023-04-10T23:59:54.016Z,3.90
